Time;durP1;ratioP1;P1;durP2;ratioP2;P2;SDS_P1;SDS_P2;PMS_P1;PMS_P2;Temp;Humidity;BMP_temperature;BMP_pressure;BME280_temperature;BME280_humidity;BME280_pressure;Samples;Min_cycle;Max_cycle;Signal;HPM_P1;HPM_P2
2022/07/22 00:02:19;;;;;;;0.40;0.40;;;16.80;99.90;;;;;;5039331;28;20115;-68
2022/07/22 00:04:45;;;;;;;0.00;0.00;;;16.80;99.90;;;;;;5036753;28;20501;-68
2022/07/22 00:07:10;;;;;;;0.25;0.25;;;16.80;99.90;;;;;;5046965;28;20041;-68
2022/07/22 00:09:36;;;;;;;0.10;0.10;;;16.80;99.90;;;;;;5062266;28;20094;-68
2022/07/22 00:12:01;;;;;;;0.00;0.00;;;16.80;99.90;;;;;;5027095;28;20489;-68
2022/07/22 00:14:27;;;;;;;0.05;0.05;;;16.80;99.90;;;;;;5028175;28;20046;-68
2022/07/22 00:16:52;;;;;;;0.00;0.00;;;16.80;99.90;;;;;;5028441;28;20491;-68
2022/07/22 00:19:18;;;;;;;0.63;0.63;;;16.80;99.90;;;;;;5032195;28;20068;-68
2022/07/22 00:21:44;;;;;;;0.10;0.10;;;16.80;99.90;;;;;;5034178;28;20374;-68
2022/07/22 00:24:09;;;;;;;0.03;0.03;;;16.80;99.90;;;;;;5030890;28;20045;-68
2022/07/22 00:26:35;;;;;;;0.10;0.10;;;16.80;99.90;;;;;;5039495;28;20029;-68
2022/07/22 00:29:00;;;;;;;0.10;0.10;;;16.80;99.90;;;;;;5036579;28;20107;-68
2022/07/22 00:31:26;;;;;;;2.45;0.50;;;16.70;99.90;;;;;;5050617;28;20056;-68
2022/07/22 00:33:52;;;;;;;0.10;0.10;;;16.80;99.90;;;;;;5045793;28;20636;-68
2022/07/22 00:36:18;;;;;;;0.20;0.20;;;16.80;99.90;;;;;;5037454;28;20053;-68
2022/07/22 00:38:43;;;;;;;0.00;0.00;;;16.70;99.90;;;;;;5050600;28;20052;-68
2022/07/22 00:41:09;;;;;;;0.00;0.00;;;16.80;99.90;;;;;;5044001;28;20037;-68
2022/07/22 00:43:57;;;;;;;0.00;0.00;;;16.70;99.90;;;;;;5036607;28;20053;-68
2022/07/22 00:46:23;;;;;;;0.10;0.10;;;16.70;99.90;;;;;;5039079;28;20037;-68
2022/07/22 00:48:48;;;;;;;0.00;0.00;;;16.80;99.90;;;;;;5049758;28;20041;-68
2022/07/22 00:51:15;;;;;;;4.40;2.17;;;16.70;99.90;;;;;;5031420;28;20053;-68
2022/07/22 00:53:41;;;;;;;0.10;0.10;;;16.70;99.90;;;;;;5028811;28;20081;-68
2022/07/22 00:56:06;;;;;;;0.20;0.20;;;16.70;99.90;;;;;;5031554;28;20104;-68
2022/07/22 00:58:32;;;;;;;0.17;0.17;;;16.70;99.90;;;;;;5032417;28;20069;-67
2022/07/22 01:00:58;;;;;;;3.50;1.08;;;16.70;99.90;;;;;;5043827;28;20040;-68
2022/07/22 01:03:23;;;;;;;0.10;0.10;;;16.70;99.90;;;;;;5051098;28;20053;-68
2022/07/22 01:05:49;;;;;;;2.17;0.57;;;16.70;99.90;;;;;;5045463;28;20051;-68
2022/07/22 01:08:15;;;;;;;0.03;0.03;;;16.70;99.90;;;;;;5040890;28;20049;-67
2022/07/22 01:10:40;;;;;;;0.10;0.10;;;16.70;99.90;;;;;;5030982;28;20038;-68
2022/07/22 01:13:06;;;;;;;0.00;0.00;;;16.70;99.90;;;;;;5040777;28;20101;-68
2022/07/22 01:15:33;;;;;;;0.05;0.05;;;16.60;99.90;;;;;;5048425;28;20033;-68
2022/07/22 01:17:58;;;;;;;3.00;0.88;;;16.70;99.90;;;;;;5030437;28;20042;-68
2022/07/22 01:20:25;;;;;;;0.00;0.00;;;16.60;99.90;;;;;;5036907;28;20522;-68
2022/07/22 01:22:52;;;;;;;0.30;0.30;;;16.60;99.90;;;;;;5050772;28;20102;-68
2022/07/22 01:25:17;;;;;;;0.00;0.00;;;16.60;99.90;;;;;;5038888;28;20049;-68
2022/07/22 01:27:43;;;;;;;0.55;0.52;;;16.60;99.90;;;;;;5038205;28;20562;-68
2022/07/22 01:30:09;;;;;;;0.05;0.05;;;16.60;99.90;;;;;;5049378;28;20041;-68
2022/07/22 01:32:35;;;;;;;0.10;0.10;;;16.60;99.90;;;;;;5044007;28;20095;-68
2022/07/22 01:35:01;;;;;;;0.10;0.10;;;16.60;99.90;;;;;;5031453;28;20039;-68
2022/07/22 01:37:26;;;;;;;0.00;0.00;;;16.60;99.90;;;;;;5041754;28;20080;-68
2022/07/22 01:39:52;;;;;;;0.08;0.08;;;16.60;99.90;;;;;;5035711;28;20033;-68
2022/07/22 01:42:18;;;;;;;0.63;0.63;;;16.50;99.90;;;;;;5050298;28;20663;-68
2022/07/22 01:44:43;;;;;;;0.40;0.40;;;16.60;99.90;;;;;;5049082;28;20508;-68
2022/07/22 01:47:10;;;;;;;0.10;0.10;;;16.60;99.90;;;;;;5032593;28;20057;-68
2022/07/22 01:49:35;;;;;;;11.50;2.60;;;16.60;99.90;;;;;;5028211;28;20041;-68
2022/07/22 01:52:02;;;;;;;0.10;0.10;;;16.60;99.90;;;;;;5029720;28;20053;-68
2022/07/22 01:54:28;;;;;;;0.20;0.20;;;16.60;99.90;;;;;;5032765;28;20071;-68
2022/07/22 01:56:54;;;;;;;0.10;0.10;;;16.50;99.90;;;;;;5036989;28;20053;-68
2022/07/22 01:59:19;;;;;;;0.00;0.00;;;16.40;99.90;;;;;;5043006;28;20088;-68
2022/07/22 02:01:45;;;;;;;0.10;0.10;;;16.50;99.90;;;;;;5047344;28;20041;-68
2022/07/22 02:04:10;;;;;;;0.10;0.10;;;16.50;99.90;;;;;;5049273;28;20045;-68
2022/07/22 02:06:36;;;;;;;0.20;0.20;;;16.50;99.90;;;;;;5037565;28;20042;-68
2022/07/22 02:09:02;;;;;;;0.57;0.38;;;16.50;99.90;;;;;;5040124;28;20077;-68
2022/07/22 02:11:28;;;;;;;0.00;0.00;;;16.40;99.90;;;;;;5031014;28;20092;-68
2022/07/22 02:13:53;;;;;;;0.10;0.10;;;16.40;99.90;;;;;;5046661;28;20484;-68
2022/07/22 02:16:19;;;;;;;0.10;0.10;;;16.40;99.90;;;;;;5049863;28;20041;-68
2022/07/22 02:18:44;;;;;;;0.10;0.10;;;16.40;99.90;;;;;;5037468;28;20044;-68
2022/07/22 02:21:10;;;;;;;0.13;0.13;;;16.40;99.90;;;;;;5029834;28;20045;-68
2022/07/22 02:23:35;;;;;;;0.10;0.10;;;16.40;99.90;;;;;;5045820;28;20040;-68
2022/07/22 02:26:01;;;;;;;1.13;0.35;;;16.40;99.90;;;;;;5041697;28;20033;-68
2022/07/22 02:28:27;;;;;;;0.10;0.10;;;16.40;99.90;;;;;;5036979;28;20045;-68
2022/07/22 02:30:52;;;;;;;0.10;0.10;;;16.40;99.90;;;;;;5030966;28;20082;-68
2022/07/22 02:33:18;;;;;;;0.10;0.10;;;16.40;99.90;;;;;;5044964;28;20045;-68
2022/07/22 02:35:43;;;;;;;0.10;0.10;;;16.40;99.90;;;;;;5032358;28;20091;-68
2022/07/22 02:38:09;;;;;;;0.10;0.10;;;16.30;99.90;;;;;;5028775;28;20128;-68
2022/07/22 02:40:35;;;;;;;0.00;0.00;;;16.40;99.90;;;;;;5027431;28;20049;-68
2022/07/22 02:43:01;;;;;;;0.10;0.10;;;16.40;99.90;;;;;;5044885;28;20041;-68
2022/07/22 02:45:26;;;;;;;0.05;0.05;;;16.30;99.90;;;;;;5049526;28;20102;-68
2022/07/22 02:47:54;;;;;;;0.00;0.00;;;16.30;99.90;;;;;;5036432;28;20476;-68
2022/07/22 02:50:20;;;;;;;0.10;0.10;;;16.30;99.90;;;;;;5028860;28;20540;-68
2022/07/22 02:52:46;;;;;;;0.10;0.10;;;16.30;99.90;;;;;;5037515;28;20606;-67
2022/07/22 02:55:13;;;;;;;0.03;0.03;;;16.30;99.90;;;;;;5029360;28;20370;-67
2022/07/22 02:57:38;;;;;;;0.08;0.08;;;16.30;99.90;;;;;;5043275;28;20118;-68
2022/07/22 03:00:06;;;;;;;0.95;0.20;;;16.30;99.90;;;;;;5047266;28;20455;-68
2022/07/22 03:02:32;;;;;;;0.10;0.10;;;16.30;99.90;;;;;;5043911;28;20134;-68
2022/07/22 03:04:57;;;;;;;0.10;0.10;;;16.30;99.90;;;;;;5028851;28;20516;-68
2022/07/22 03:07:23;;;;;;;0.10;0.10;;;16.30;99.90;;;;;;5041983;28;20049;-68
2022/07/22 03:09:48;;;;;;;0.10;0.10;;;16.30;99.90;;;;;;5048087;28;20041;-68
2022/07/22 03:12:14;;;;;;;0.10;0.10;;;16.30;99.90;;;;;;5047236;28;20457;-68
2022/07/22 03:14:40;;;;;;;0.70;0.52;;;16.30;99.90;;;;;;5040572;28;20041;-67
2022/07/22 03:17:05;;;;;;;0.00;0.00;;;16.30;99.90;;;;;;5028345;28;20124;-68
2022/07/22 03:19:31;;;;;;;0.10;0.10;;;16.20;99.90;;;;;;5046732;28;20400;-68
2022/07/22 03:21:56;;;;;;;0.47;0.47;;;16.30;99.90;;;;;;5042664;28;20145;-68
2022/07/22 03:24:22;;;;;;;0.00;0.00;;;16.30;99.90;;;;;;5035494;28;20122;-68
2022/07/22 03:26:47;;;;;;;0.10;0.10;;;16.30;99.90;;;;;;5038904;28;20121;-68
2022/07/22 03:29:13;;;;;;;0.00;0.00;;;16.20;99.90;;;;;;5027672;28;20099;-68
2022/07/22 03:31:38;;;;;;;0.10;0.10;;;16.20;99.90;;;;;;5027786;28;20050;-67
2022/07/22 03:34:04;;;;;;;0.00;0.00;;;16.20;99.90;;;;;;5032731;28;20076;-68
2022/07/22 03:36:30;;;;;;;0.38;0.28;;;16.30;99.90;;;;;;5035199;28;20049;-68
2022/07/22 03:38:55;;;;;;;0.00;0.00;;;16.30;99.90;;;;;;5047707;28;20045;-68
2022/07/22 03:41:21;;;;;;;0.00;0.00;;;16.30;99.90;;;;;;5044727;28;21515;-67
2022/07/22 03:43:47;;;;;;;0.10;0.10;;;16.30;99.90;;;;;;5026861;28;20057;-68
2022/07/22 03:46:13;;;;;;;0.10;0.10;;;16.30;99.90;;;;;;5031751;28;20036;-68
2022/07/22 03:48:38;;;;;;;0.10;0.10;;;16.40;99.90;;;;;;5047656;28;20087;-68
2022/07/22 03:51:04;;;;;;;3.08;0.90;;;16.30;99.90;;;;;;5038535;28;20051;-68
2022/07/22 03:53:30;;;;;;;0.10;0.10;;;16.30;99.90;;;;;;5036653;28;20587;-68
2022/07/22 03:55:55;;;;;;;0.00;0.00;;;16.20;99.90;;;;;;5046676;28;20153;-68
2022/07/22 03:58:21;;;;;;;0.00;0.00;;;16.20;99.90;;;;;;5047440;28;20119;-68
2022/07/22 04:00:47;;;;;;;0.00;0.00;;;16.30;99.90;;;;;;5035023;28;20061;-68
2022/07/22 04:03:12;;;;;;;0.10;0.10;;;16.30;99.90;;;;;;5038230;28;20048;-68
2022/07/22 04:05:38;;;;;;;0.00;0.00;;;16.30;99.90;;;;;;5047818;28;20056;-68
2022/07/22 04:08:03;;;;;;;0.00;0.00;;;16.30;99.90;;;;;;5028424;28;20132;-68
2022/07/22 04:10:29;;;;;;;0.00;0.00;;;16.30;99.90;;;;;;5035543;28;20053;-68
2022/07/22 04:12:55;;;;;;;0.10;0.10;;;16.30;99.90;;;;;;5028216;28;20052;-68
2022/07/22 04:15:20;;;;;;;0.10;0.10;;;16.30;99.90;;;;;;5027763;28;20045;-68
2022/07/22 04:17:46;;;;;;;0.10;0.10;;;16.30;99.90;;;;;;5034137;28;20056;-68
2022/07/22 04:20:11;;;;;;;0.00;0.00;;;16.30;99.90;;;;;;5028687;28;20081;-68
2022/07/22 04:22:37;;;;;;;0.90;0.47;;;16.30;99.90;;;;;;5036104;28;20042;-68
2022/07/22 04:25:03;;;;;;;0.50;0.35;;;16.30;99.90;;;;;;5039344;28;20086;-68
2022/07/22 04:27:28;;;;;;;0.10;0.10;;;16.30;99.90;;;;;;5044479;28;20064;-68
2022/07/22 04:29:54;;;;;;;0.65;0.65;;;16.30;99.90;;;;;;5030922;28;20045;-68
2022/07/22 04:32:19;;;;;;;0.00;0.00;;;16.30;99.90;;;;;;5030397;28;20491;-68
2022/07/22 04:34:45;;;;;;;0.00;0.00;;;16.30;99.90;;;;;;5046823;28;20116;-68
2022/07/22 04:37:11;;;;;;;0.05;0.05;;;16.30;99.90;;;;;;5036118;28;20088;-68
2022/07/22 04:39:36;;;;;;;0.10;0.10;;;16.30;99.90;;;;;;5027299;28;20056;-68
2022/07/22 04:42:02;;;;;;;0.10;0.10;;;16.30;99.90;;;;;;5038173;28;20086;-67
2022/07/22 04:44:27;;;;;;;0.00;0.00;;;16.30;99.90;;;;;;5045557;28;20088;-67
2022/07/22 04:46:53;;;;;;;0.15;0.15;;;16.30;99.90;;;;;;5032103;28;20073;-68
2022/07/22 04:49:18;;;;;;;3.50;0.50;;;16.30;99.90;;;;;;5025357;28;20111;-67
2022/07/22 04:51:44;;;;;;;0.10;0.10;;;16.40;99.90;;;;;;5030389;28;20081;-68
2022/07/22 04:54:09;;;;;;;0.00;0.00;;;16.40;99.90;;;;;;5045459;28;20048;-68
2022/07/22 04:56:35;;;;;;;0.00;0.00;;;16.30;99.90;;;;;;5046700;28;20590;-68
2022/07/22 04:59:00;;;;;;;0.00;0.00;;;16.30;99.90;;;;;;5042363;28;20056;-68
2022/07/22 05:01:26;;;;;;;0.10;0.10;;;16.30;99.90;;;;;;5042262;28;20090;-68
2022/07/22 05:03:52;;;;;;;0.10;0.10;;;16.40;99.90;;;;;;5028625;28;20176;-68
2022/07/22 05:06:18;;;;;;;0.17;0.17;;;16.40;99.90;;;;;;5048761;28;20063;-68
2022/07/22 05:08:43;;;;;;;0.00;0.00;;;16.40;99.90;;;;;;5042142;28;20131;-68
2022/07/22 05:11:09;;;;;;;1.23;1.17;;;16.30;99.90;;;;;;5029936;28;20096;-68
2022/07/22 05:13:35;;;;;;;0.00;0.00;;;16.30;99.90;;;;;;5046210;28;20060;-68
2022/07/22 05:16:05;;;;;;;0.00;0.00;;;16.30;99.90;;;;;;5050306;28;20260;-68
2022/07/22 05:18:30;;;;;;;0.17;0.17;;;16.30;99.90;;;;;;5037832;28;20123;-68
2022/07/22 05:20:56;;;;;;;0.10;0.10;;;16.40;99.90;;;;;;5047449;28;20200;-68
2022/07/22 05:23:21;;;;;;;0.10;0.10;;;16.40;99.90;;;;;;5045554;28;20155;-68
2022/07/22 05:25:47;;;;;;;0.17;0.17;;;16.40;99.90;;;;;;5037472;28;20049;-68
2022/07/22 05:28:13;;;;;;;0.20;0.20;;;16.40;99.90;;;;;;5030030;28;20049;-68
2022/07/22 05:30:38;;;;;;;0.10;0.10;;;16.40;99.90;;;;;;5038675;28;20048;-68
2022/07/22 05:33:04;;;;;;;0.08;0.08;;;16.40;99.90;;;;;;5049767;28;20040;-68
2022/07/22 05:35:29;;;;;;;0.10;0.10;;;16.40;99.90;;;;;;5048648;28;20048;-68
2022/07/22 05:37:56;;;;;;;0.00;0.00;;;16.40;99.90;;;;;;5050829;28;20052;-68
2022/07/22 05:40:21;;;;;;;0.43;0.30;;;16.40;99.90;;;;;;5031709;28;20096;-68
2022/07/22 05:42:47;;;;;;;0.10;0.10;;;16.40;99.90;;;;;;5043730;28;20408;-68
2022/07/22 05:45:13;;;;;;;0.10;0.10;;;16.40;99.90;;;;;;5049837;28;20115;-68
2022/07/22 05:47:38;;;;;;;0.55;0.55;;;16.50;99.90;;;;;;5049995;28;20045;-68
2022/07/22 05:50:04;;;;;;;0.00;0.00;;;16.40;99.90;;;;;;5032216;28;20257;-68
2022/07/22 05:52:30;;;;;;;2.92;1.08;;;16.50;99.90;;;;;;5041249;28;20049;-68
2022/07/22 05:54:58;;;;;;;0.05;0.05;;;16.50;99.90;;;;;;5063460;28;20494;-68
2022/07/22 05:57:24;;;;;;;1.10;0.63;;;16.50;99.90;;;;;;5031744;28;20049;-68
2022/07/22 05:59:49;;;;;;;0.00;0.00;;;16.50;99.90;;;;;;5049204;28;20041;-68
2022/07/22 06:02:15;;;;;;;0.10;0.10;;;16.70;99.90;;;;;;5036170;28;20048;-68
2022/07/22 06:04:41;;;;;;;0.10;0.10;;;16.60;99.90;;;;;;5027603;28;20042;-68
2022/07/22 06:07:06;;;;;;;0.10;0.10;;;16.70;99.90;;;;;;5035041;28;20045;-68
2022/07/22 06:09:32;;;;;;;0.00;0.00;;;16.70;99.90;;;;;;5032138;28;20035;-68
2022/07/22 06:11:58;;;;;;;0.10;0.10;;;16.80;99.90;;;;;;5048833;28;20477;-68
2022/07/22 06:14:23;;;;;;;0.10;0.10;;;16.80;99.90;;;;;;5035887;28;20128;-68
2022/07/22 06:16:49;;;;;;;0.00;0.00;;;16.80;99.90;;;;;;5030756;28;20038;-68
2022/07/22 06:19:15;;;;;;;0.00;0.00;;;16.80;99.90;;;;;;5039577;28;20488;-68
2022/07/22 06:21:40;;;;;;;3.85;0.43;;;16.90;99.90;;;;;;5041888;28;20040;-68
2022/07/22 06:24:06;;;;;;;0.10;0.10;;;16.90;99.90;;;;;;5048298;28;20128;-68
2022/07/22 06:26:32;;;;;;;0.00;0.00;;;16.90;99.90;;;;;;5063043;28;20051;-68
2022/07/22 06:28:57;;;;;;;0.45;0.45;;;16.90;99.90;;;;;;5029213;28;20049;-68
2022/07/22 06:31:23;;;;;;;0.00;0.00;;;17.00;99.90;;;;;;5028937;28;20061;-68
2022/07/22 06:33:48;;;;;;;0.08;0.08;;;17.00;99.90;;;;;;5031233;28;20127;-68
2022/07/22 06:36:14;;;;;;;0.40;0.40;;;17.00;99.90;;;;;;5043095;28;20041;-68
2022/07/22 06:38:40;;;;;;;0.10;0.10;;;17.10;99.90;;;;;;5031197;28;20057;-68
2022/07/22 06:41:06;;;;;;;0.10;0.10;;;17.10;99.90;;;;;;5049196;28;20039;-67
2022/07/22 06:43:31;;;;;;;0.10;0.10;;;17.20;99.90;;;;;;5042981;28;20052;-67
2022/07/22 06:45:57;;;;;;;0.10;0.10;;;17.20;99.90;;;;;;5029677;28;20057;-67
2022/07/22 06:48:22;;;;;;;0.00;0.00;;;17.20;99.90;;;;;;5032362;28;20052;-67
2022/07/22 06:50:48;;;;;;;0.00;0.00;;;17.20;99.90;;;;;;5031153;28;20488;-67
2022/07/22 06:53:14;;;;;;;0.08;0.08;;;17.30;99.90;;;;;;5056880;28;20045;-69
2022/07/22 06:55:39;;;;;;;0.10;0.10;;;17.30;99.90;;;;;;5034393;28;20068;-67
2022/07/22 06:58:05;;;;;;;0.10;0.10;;;17.30;99.90;;;;;;5043411;28;20079;-67
2022/07/22 07:00:31;;;;;;;0.10;0.10;;;17.30;99.90;;;;;;5045643;28;20041;-67
2022/07/22 07:02:59;;;;;;;0.30;0.30;;;17.20;99.90;;;;;;5046228;28;20094;-67
2022/07/22 07:05:27;;;;;;;0.10;0.10;;;17.20;99.90;;;;;;5035810;28;20557;-67
2022/07/22 07:07:53;;;;;;;0.08;0.08;;;17.20;99.90;;;;;;5046306;28;20025;-67
2022/07/22 07:10:19;;;;;;;0.10;0.10;;;17.20;99.90;;;;;;5045615;28;20049;-67
2022/07/22 07:12:44;;;;;;;0.00;0.00;;;17.20;99.90;;;;;;5041353;28;20590;-67
2022/07/22 07:15:11;;;;;;;0.00;0.00;;;17.10;99.90;;;;;;5042121;28;20056;-67
2022/07/22 07:17:37;;;;;;;0.08;0.08;;;17.10;99.90;;;;;;5045052;28;20040;-67
2022/07/22 07:20:03;;;;;;;0.05;0.05;;;17.10;99.90;;;;;;5048501;28;20044;-67
2022/07/22 07:22:29;;;;;;;0.10;0.10;;;17.10;99.90;;;;;;5036814;28;20048;-67
2022/07/22 07:24:55;;;;;;;0.00;0.00;;;17.20;99.90;;;;;;5031952;28;20057;-67
2022/07/22 07:27:20;;;;;;;0.43;0.30;;;17.20;99.90;;;;;;5047203;28;20048;-67
2022/07/22 07:29:46;;;;;;;0.00;0.00;;;17.20;99.90;;;;;;5046880;28;20084;-67
2022/07/22 07:32:11;;;;;;;0.00;0.00;;;17.20;99.90;;;;;;5028273;28;20076;-66
2022/07/22 07:34:38;;;;;;;0.10;0.10;;;17.30;99.90;;;;;;5035842;28;20053;-67
2022/07/22 07:37:04;;;;;;;0.00;0.00;;;17.40;99.90;;;;;;5027095;28;20496;-67
2022/07/22 07:39:29;;;;;;;0.00;0.00;;;17.30;99.90;;;;;;5041357;28;20048;-67
2022/07/22 07:41:55;;;;;;;0.00;0.00;;;17.40;99.90;;;;;;5047651;28;20053;-67
2022/07/22 07:44:20;;;;;;;0.10;0.10;;;17.40;99.90;;;;;;5037741;28;20678;-67
2022/07/22 07:46:46;;;;;;;0.00;0.00;;;17.50;99.90;;;;;;5029569;28;20409;-67
2022/07/22 07:49:11;;;;;;;0.75;0.75;;;17.40;99.90;;;;;;5040554;28;20040;-67
2022/07/22 07:51:37;;;;;;;0.10;0.10;;;17.50;99.90;;;;;;5027368;28;20049;-67
2022/07/22 07:54:03;;;;;;;0.00;0.00;;;17.50;99.90;;;;;;5034080;28;20477;-67
2022/07/22 07:56:28;;;;;;;0.00;0.00;;;17.50;99.90;;;;;;5036267;28;20516;-67
2022/07/22 07:58:54;;;;;;;0.10;0.10;;;17.60;99.90;;;;;;5031876;28;20091;-67
2022/07/22 08:01:19;;;;;;;0.00;0.00;;;17.60;99.90;;;;;;5027427;28;20500;-67
2022/07/22 08:03:45;;;;;;;0.00;0.00;;;17.70;99.90;;;;;;5027860;28;20092;-67
2022/07/22 08:06:10;;;;;;;0.10;0.10;;;17.60;99.90;;;;;;5031973;28;20044;-67
2022/07/22 08:08:36;;;;;;;0.03;0.03;;;17.60;99.90;;;;;;5034402;28;20962;-67
2022/07/22 08:11:02;;;;;;;0.00;0.00;;;17.70;99.90;;;;;;5045437;28;20033;-67
2022/07/22 08:13:28;;;;;;;0.00;0.00;;;17.70;99.90;;;;;;5047895;28;20420;-67
2022/07/22 08:15:54;;;;;;;0.00;0.00;;;17.80;99.90;;;;;;5045006;28;20041;-67
2022/07/22 08:18:19;;;;;;;0.10;0.10;;;17.80;99.90;;;;;;5045162;28;20044;-67
2022/07/22 08:20:45;;;;;;;0.00;0.00;;;17.90;99.90;;;;;;5045795;28;20041;-67
2022/07/22 08:23:11;;;;;;;0.00;0.00;;;17.80;99.90;;;;;;5045179;28;20037;-67
2022/07/22 08:25:37;;;;;;;0.00;0.00;;;17.80;99.90;;;;;;5042052;28;20095;-67
2022/07/22 08:28:02;;;;;;;0.00;0.00;;;17.90;99.90;;;;;;5033303;28;20552;-67
2022/07/22 08:30:28;;;;;;;0.08;0.08;;;17.90;99.90;;;;;;5044949;28;20037;-67
2022/07/22 08:32:54;;;;;;;0.00;0.00;;;17.90;99.90;;;;;;5040051;28;20046;-67
2022/07/22 08:35:20;;;;;;;0.03;0.03;;;18.00;99.90;;;;;;5032813;28;20055;-67
2022/07/22 08:37:47;;;;;;;0.10;0.10;;;17.90;99.90;;;;;;5028759;28;20053;-67
2022/07/22 08:40:14;;;;;;;0.08;0.08;;;17.90;99.90;;;;;;5050002;28;20133;-67
2022/07/22 08:42:41;;;;;;;0.00;0.00;;;17.90;99.90;;;;;;5051712;28;20106;-67
2022/07/22 08:45:08;;;;;;;0.00;0.00;;;17.90;99.90;;;;;;5044331;28;20083;-67
2022/07/22 08:47:34;;;;;;;0.10;0.10;;;17.90;99.90;;;;;;5033894;28;20052;-67
2022/07/22 08:50:00;;;;;;;1.90;0.38;;;18.00;99.90;;;;;;5033869;28;20949;-67
2022/07/22 08:52:26;;;;;;;0.20;0.20;;;17.90;99.90;;;;;;5051133;28;20067;-67
2022/07/22 08:54:51;;;;;;;0.10;0.10;;;18.00;99.90;;;;;;5048810;28;20072;-67
2022/07/22 08:57:18;;;;;;;0.00;0.00;;;17.90;99.90;;;;;;5031214;28;20091;-67
2022/07/22 08:59:55;;;;;;;0.00;0.00;;;18.00;99.90;;;;;;5031057;28;20085;-67
2022/07/22 09:02:22;;;;;;;0.17;0.17;;;18.00;99.90;;;;;;5033394;28;20045;-67
2022/07/22 09:05:05;;;;;;;0.00;0.00;;;18.00;99.90;;;;;;5031857;28;20049;-67
2022/07/22 09:07:34;;;;;;;0.00;0.00;;;18.00;99.90;;;;;;5030977;28;20175;-67
2022/07/22 09:10:00;;;;;;;0.00;0.00;;;18.10;99.90;;;;;;5031652;28;20042;-67
2022/07/22 09:12:31;;;;;;;0.10;0.10;;;18.10;99.90;;;;;;5031350;28;21077;-67
2022/07/22 09:14:59;;;;;;;0.00;0.00;;;18.10;99.90;;;;;;5050681;28;20434;-67
2022/07/22 09:17:31;;;;;;;0.00;0.00;;;18.20;99.90;;;;;;5036659;28;20481;-67
2022/07/22 09:19:59;;;;;;;0.10;0.10;;;18.30;99.90;;;;;;5030683;28;20037;-67
2022/07/22 09:22:38;;;;;;;0.00;0.00;;;18.40;99.90;;;;;;5046660;28;20500;-67
2022/07/22 09:25:21;;;;;;;0.00;0.00;;;18.40;99.90;;;;;;5034805;28;20037;-67
2022/07/22 09:27:48;;;;;;;0.10;0.10;;;18.40;99.90;;;;;;5037993;28;20045;-67
2022/07/22 09:30:16;;;;;;;0.00;0.00;;;18.30;99.90;;;;;;5031770;28;20518;-67
2022/07/22 09:32:43;;;;;;;0.10;0.10;;;18.10;99.90;;;;;;5041011;28;20049;-67
2022/07/22 09:35:10;;;;;;;0.05;0.05;;;18.10;99.90;;;;;;5041960;28;20078;-67
2022/07/22 09:37:54;;;;;;;0.00;0.00;;;18.00;99.90;;;;;;5053045;28;20086;-67
2022/07/22 09:40:22;;;;;;;0.00;0.00;;;17.90;99.90;;;;;;5048303;28;20973;-67
2022/07/22 09:42:53;;;;;;;0.00;0.00;;;17.90;99.90;;;;;;5048342;28;20049;-67
2022/07/22 09:45:20;;;;;;;0.00;0.00;;;18.00;99.90;;;;;;5049256;28;20040;-66
2022/07/22 09:47:46;;;;;;;0.00;0.00;;;18.00;99.90;;;;;;5041004;28;20042;-66
2022/07/22 09:50:22;;;;;;;0.00;0.00;;;18.10;99.90;;;;;;5047815;28;20116;-66
2022/07/22 09:52:50;;;;;;;0.03;0.03;;;18.20;99.90;;;;;;5043843;28;20049;-67
2022/07/22 09:55:18;;;;;;;0.00;0.00;;;18.30;99.90;;;;;;5043961;28;20044;-67
2022/07/22 09:57:44;;;;;;;0.10;0.10;;;18.40;99.90;;;;;;5038411;28;20050;-67
2022/07/22 10:00:12;;;;;;;0.03;0.03;;;18.50;99.90;;;;;;5038763;28;20041;-67
2022/07/22 10:02:48;;;;;;;0.20;0.20;;;18.60;99.90;;;;;;5041978;28;20091;-67
2022/07/22 10:05:15;;;;;;;0.10;0.10;;;18.80;99.90;;;;;;5035841;28;20776;-67
2022/07/22 10:07:42;;;;;;;0.00;0.00;;;19.00;99.90;;;;;;5046347;28;20069;-67
2022/07/22 10:10:10;;;;;;;0.03;0.03;;;19.10;99.90;;;;;;5030988;28;20084;-68
2022/07/22 10:12:38;;;;;;;0.00;0.00;;;19.20;99.90;;;;;;5046516;28;20566;-68
2022/07/22 10:15:04;;;;;;;0.00;0.00;;;19.20;99.90;;;;;;5045639;28;20048;-68
2022/07/22 10:17:31;;;;;;;0.00;0.00;;;19.30;99.90;;;;;;5043270;28;20451;-68
2022/07/22 10:19:57;;;;;;;0.00;0.00;;;19.30;99.90;;;;;;5031950;28;20091;-69
2022/07/22 10:22:41;;;;;;;0.10;0.10;;;19.30;99.90;;;;;;5038880;28;20049;-68
2022/07/22 10:25:08;;;;;;;0.00;0.00;;;19.30;99.90;;;;;;5038034;28;20554;-68
2022/07/22 10:27:53;;;;;;;0.00;0.00;;;19.40;99.90;;;;;;5046596;28;20053;-69
2022/07/22 10:30:30;;;;;;;0.00;0.00;;;19.40;99.90;;;;;;5047542;28;20136;-68
2022/07/22 10:33:07;;;;;;;0.52;0.38;;;19.50;99.90;;;;;;5048348;28;20041;-69
2022/07/22 10:35:36;;;;;;;0.10;0.10;;;19.50;99.90;;;;;;5031154;28;20044;-69
2022/07/22 10:38:04;;;;;;;0.00;0.00;;;19.60;99.90;;;;;;5027722;28;20053;-69
2022/07/22 10:40:46;;;;;;;0.20;0.20;;;19.60;99.90;;;;;;5037813;28;20090;-68
2022/07/22 10:43:12;;;;;;;0.08;0.08;;;19.70;99.90;;;;;;5045733;28;20388;-69
2022/07/22 10:45:45;;;;;;;0.00;0.00;;;19.70;99.90;;;;;;5033323;28;20037;-69
2022/07/22 10:48:14;;;;;;;0.10;0.10;;;19.80;99.90;;;;;;5063529;28;20060;-68
2022/07/22 10:50:45;;;;;;;0.25;0.25;;;19.80;99.90;;;;;;5046645;28;20099;-69
2022/07/22 10:53:13;;;;;;;0.10;0.10;;;19.90;99.90;;;;;;5039807;28;20045;-69
2022/07/22 10:55:59;;;;;;;0.00;0.00;;;19.90;99.90;;;;;;5031648;28;20591;-69
2022/07/22 10:58:33;;;;;;;0.00;0.00;;;19.90;99.90;;;;;;5048114;28;20542;-69
2022/07/22 11:01:01;;;;;;;0.10;0.10;;;19.90;99.90;;;;;;5041102;28;20056;-69
2022/07/22 11:03:29;;;;;;;0.00;0.00;;;19.90;99.90;;;;;;5037310;28;20495;-69
2022/07/22 11:05:56;;;;;;;0.00;0.00;;;20.00;99.90;;;;;;5047373;28;20041;-69
2022/07/22 11:08:22;;;;;;;0.10;0.10;;;20.10;99.90;;;;;;5036273;28;20060;-69
2022/07/22 11:10:51;;;;;;;0.00;0.00;;;20.00;99.90;;;;;;5029864;28;20515;-68
2022/07/22 11:13:32;;;;;;;0.00;0.00;;;20.00;99.90;;;;;;5047209;28;20052;-69
2022/07/22 11:16:14;;;;;;;0.10;0.10;;;19.90;99.90;;;;;;5043430;28;20404;-69
2022/07/22 11:18:48;;;;;;;0.20;0.20;;;19.70;99.90;;;;;;5042795;28;20049;-69
2022/07/22 11:21:16;;;;;;;0.00;0.00;;;19.40;99.90;;;;;;5047644;28;20080;-70
2022/07/22 11:23:42;;;;;;;0.00;0.00;;;19.50;99.90;;;;;;5032259;28;20056;-69
2022/07/22 11:26:12;;;;;;;0.08;0.08;;;19.50;99.90;;;;;;5036085;28;20176;-68
2022/07/22 11:28:42;;;;;;;0.00;0.00;;;19.50;99.90;;;;;;5030310;28;20049;-68
2022/07/22 11:31:10;;;;;;;0.00;0.00;;;19.40;99.90;;;;;;5033338;28;20049;-69
2022/07/22 11:33:36;;;;;;;0.10;0.10;;;19.40;99.90;;;;;;5031732;28;20041;-69
2022/07/22 11:36:07;;;;;;;0.00;0.00;;;19.40;99.90;;;;;;5036850;28;20045;-69
2022/07/22 11:38:49;;;;;;;0.00;0.00;;;19.40;99.90;;;;;;5028598;28;20049;-69
2022/07/22 11:41:18;;;;;;;0.00;0.00;;;19.30;99.90;;;;;;5032310;28;20136;-69
2022/07/22 11:43:47;;;;;;;0.00;0.00;;;19.40;99.90;;;;;;5028551;28;20053;-69
2022/07/22 11:46:17;;;;;;;0.15;0.15;;;19.40;99.90;;;;;;5042483;28;20080;-67
2022/07/22 11:48:43;;;;;;;0.00;0.00;;;19.30;99.90;;;;;;5040316;28;20114;-68
2022/07/22 11:51:11;;;;;;;0.00;0.00;;;19.30;99.90;;;;;;5031351;28;20120;-67
2022/07/22 11:53:38;;;;;;;0.00;0.00;;;19.30;99.90;;;;;;5039564;28;20492;-67
2022/07/22 11:56:06;;;;;;;0.22;0.22;;;19.40;99.90;;;;;;5046681;28;20057;-67
2022/07/22 11:58:43;;;;;;;0.00;0.00;;;19.30;99.90;;;;;;5045401;28;20049;-67
2022/07/22 12:01:11;;;;;;;0.10;0.10;;;19.30;99.90;;;;;;5036446;28;20076;-66
2022/07/22 12:03:39;;;;;;;0.00;0.00;;;19.30;99.90;;;;;;5031895;28;20060;-67
2022/07/22 12:06:08;;;;;;;0.03;0.03;;;19.40;99.90;;;;;;5036993;28;20037;-67
2022/07/22 12:08:38;;;;;;;0.10;0.10;;;19.40;99.90;;;;;;5048161;28;20119;-67
2022/07/22 12:11:04;;;;;;;0.10;0.10;;;19.40;99.90;;;;;;5029552;28;20041;-68
2022/07/22 12:13:31;;;;;;;0.00;0.00;;;19.30;99.90;;;;;;5029559;28;20092;-67
2022/07/22 12:15:57;;;;;;;0.10;0.10;;;19.20;99.90;;;;;;5049758;28;20089;-67
2022/07/22 12:18:25;;;;;;;0.30;0.30;;;19.20;99.90;;;;;;5049151;28;20045;-68
2022/07/22 12:20:53;;;;;;;0.00;0.00;;;19.20;99.90;;;;;;5052368;28;20041;-67
2022/07/22 12:23:21;;;;;;;0.10;0.10;;;19.10;99.90;;;;;;5042359;28;20041;-67
2022/07/22 12:25:50;;;;;;;0.00;0.00;;;19.10;99.90;;;;;;5034610;28;20053;-67
2022/07/22 12:28:15;;;;;;;0.00;0.00;;;18.90;99.90;;;;;;5034846;28;20457;-67
2022/07/22 12:30:42;;;;;;;0.00;0.00;;;18.90;99.90;;;;;;5036150;28;20112;-67
2022/07/22 12:33:14;;;;;;;1.45;0.82;;;18.80;99.90;;;;;;5046340;28;20562;-67
2022/07/22 12:35:39;;;;;;;0.00;0.00;;;18.80;99.90;;;;;;5039373;28;20612;-68
2022/07/22 12:38:10;;;;;;;0.00;0.00;;;18.70;99.90;;;;;;5031447;28;20041;-68
2022/07/22 12:40:37;;;;;;;0.00;0.00;;;18.60;99.90;;;;;;5037646;28;20140;-68
2022/07/22 12:43:08;;;;;;;0.00;0.00;;;18.50;99.90;;;;;;5051548;28;20064;-68
2022/07/22 12:45:36;;;;;;;0.10;0.10;;;18.50;99.90;;;;;;5049648;28;20052;-68
2022/07/22 12:48:03;;;;;;;0.00;0.00;;;18.50;99.90;;;;;;5045348;28;20071;-68